sensor_id;sensor_type;location;lat;lon;timestamp;temperature;humidity
31451;DHT22;18070;52.474;13.304;2023-10-09T00:01:40;12.60;99.90
31451;DHT22;18070;52.474;13.304;2023-10-09T00:04:10;12.60;99.90
31451;DHT22;18070;52.474;13.304;2023-10-09T00:06:37;12.50;99.90
31451;DHT22;18070;52.474;13.304;2023-10-09T00:09:06;12.50;99.90
31451;DHT22;18070;52.474;13.304;2023-10-09T00:11:50;12.40;99.90
31451;DHT22;18070;52.474;13.304;2023-10-09T00:14:29;12.40;99.90
31451;DHT22;18070;52.474;13.304;2023-10-09T00:16:56;12.40;99.90
31451;DHT22;18070;52.474;13.304;2023-10-09T00:19:43;12.30;99.90
31451;DHT22;18070;52.474;13.304;2023-10-09T00:22:09;12.30;99.90
31451;DHT22;18070;52.474;13.304;2023-10-09T00:24:44;12.30;99.90
31451;DHT22;18070;52.474;13.304;2023-10-09T00:27:11;12.20;99.90
31451;DHT22;18070;52.474;13.304;2023-10-09T00:29:41;12.20;99.90
31451;DHT22;18070;52.474;13.304;2023-10-09T00:32:14;12.10;99.90
31451;DHT22;18070;52.474;13.304;2023-10-09T00:34:52;12.10;99.90
31451;DHT22;18070;52.474;13.304;2023-10-09T00:37:18;12.10;99.90
31451;DHT22;18070;52.474;13.304;2023-10-09T00:39:48;12.10;99.90
31451;DHT22;18070;52.474;13.304;2023-10-09T00:42:22;12.10;99.90
31451;DHT22;18070;52.474;13.304;2023-10-09T00:44:58;12.10;99.90
31451;DHT22;18070;52.474;13.304;2023-10-09T00:47:31;12.10;99.90
31451;DHT22;18070;52.474;13.304;2023-10-09T00:50:07;12.00;99.90
31451;DHT22;18070;52.474;13.304;2023-10-09T00:52:50;12.00;99.90
31451;DHT22;18070;52.474;13.304;2023-10-09T00:55:19;11.90;99.90
31451;DHT22;18070;52.474;13.304;2023-10-09T00:58:14;12.00;99.90
31451;DHT22;18070;52.474;13.304;2023-10-09T01:00:42;12.00;99.90
31451;DHT22;18070;52.474;13.304;2023-10-09T01:03:11;12.00;99.90
31451;DHT22;18070;52.474;13.304;2023-10-09T01:05:49;12.00;99.90
31451;DHT22;18070;52.474;13.304;2023-10-09T01:08:34;12.00;99.90
31451;DHT22;18070;52.474;13.304;2023-10-09T01:11:16;11.90;99.90
31451;DHT22;18070;52.474;13.304;2023-10-09T01:13:47;11.90;99.90
31451;DHT22;18070;52.474;13.304;2023-10-09T01:16:14;11.90;99.90
31451;DHT22;18070;52.474;13.304;2023-10-09T01:18:53;11.90;99.90
31451;DHT22;18070;52.474;13.304;2023-10-09T01:21:20;11.90;99.90
31451;DHT22;18070;52.474;13.304;2023-10-09T01:23:50;11.90;99.90
31451;DHT22;18070;52.474;13.304;2023-10-09T01:26:41;11.90;99.90
31451;DHT22;18070;52.474;13.304;2023-10-09T01:29:17;12.00;99.90
31451;DHT22;18070;52.474;13.304;2023-10-09T01:34:33;11.90;99.90
31451;DHT22;18070;52.474;13.304;2023-10-09T01:37:11;11.80;99.90
31451;DHT22;18070;52.474;13.304;2023-10-09T01:39:40;11.80;99.90
31451;DHT22;18070;52.474;13.304;2023-10-09T01:42:08;11.70;99.90
31451;DHT22;18070;52.474;13.304;2023-10-09T01:44:35;11.70;99.90
31451;DHT22;18070;52.474;13.304;2023-10-09T01:47:04;11.70;99.90
31451;DHT22;18070;52.474;13.304;2023-10-09T01:49:37;11.80;99.90
31451;DHT22;18070;52.474;13.304;2023-10-09T01:52:03;11.70;99.90
31451;DHT22;18070;52.474;13.304;2023-10-09T01:54:39;11.70;99.90
31451;DHT22;18070;52.474;13.304;2023-10-09T01:57:12;11.60;99.90
31451;DHT22;18070;52.474;13.304;2023-10-09T01:59:47;11.60;99.90
31451;DHT22;18070;52.474;13.304;2023-10-09T02:02:18;11.60;99.90
31451;DHT22;18070;52.474;13.304;2023-10-09T02:05:04;11.60;99.90
31451;DHT22;18070;52.474;13.304;2023-10-09T02:07:51;11.60;99.90
31451;DHT22;18070;52.474;13.304;2023-10-09T02:10:18;11.60;99.90
31451;DHT22;18070;52.474;13.304;2023-10-09T02:12:52;11.60;99.90
31451;DHT22;18070;52.474;13.304;2023-10-09T02:15:23;11.60;99.90
31451;DHT22;18070;52.474;13.304;2023-10-09T02:18:08;11.70;99.90
31451;DHT22;18070;52.474;13.304;2023-10-09T02:21:06;11.60;99.90
31451;DHT22;18070;52.474;13.304;2023-10-09T02:23:33;11.60;99.90
31451;DHT22;18070;52.474;13.304;2023-10-09T02:26:13;11.60;99.90
31451;DHT22;18070;52.474;13.304;2023-10-09T02:28:55;11.60;99.90
31451;DHT22;18070;52.474;13.304;2023-10-09T02:31:25;11.60;99.90
31451;DHT22;18070;52.474;13.304;2023-10-09T02:33:52;11.60;99.90
31451;DHT22;18070;52.474;13.304;2023-10-09T02:36:23;11.60;99.90
31451;DHT22;18070;52.474;13.304;2023-10-09T02:38:49;11.60;99.90
31451;DHT22;18070;52.474;13.304;2023-10-09T02:41:18;11.70;99.90
31451;DHT22;18070;52.474;13.304;2023-10-09T02:43:46;11.70;99.90
31451;DHT22;18070;52.474;13.304;2023-10-09T02:46:16;11.70;99.90
31451;DHT22;18070;52.474;13.304;2023-10-09T02:48:56;11.60;99.90
31451;DHT22;18070;52.474;13.304;2023-10-09T02:51:24;11.60;99.90
31451;DHT22;18070;52.474;13.304;2023-10-09T02:53:57;11.60;99.90
31451;DHT22;18070;52.474;13.304;2023-10-09T02:56:24;11.60;99.90
31451;DHT22;18070;52.474;13.304;2023-10-09T02:58:53;11.60;99.90
31451;DHT22;18070;52.474;13.304;2023-10-09T03:01:19;11.60;99.90
31451;DHT22;18070;52.474;13.304;2023-10-09T03:03:45;11.60;99.90
31451;DHT22;18070;52.474;13.304;2023-10-09T03:06:12;11.60;99.90
31451;DHT22;18070;52.474;13.304;2023-10-09T03:08:38;11.50;99.90
31451;DHT22;18070;52.474;13.304;2023-10-09T03:11:07;11.50;99.90
31451;DHT22;18070;52.474;13.304;2023-10-09T03:13:40;11.40;99.90
31451;DHT22;18070;52.474;13.304;2023-10-09T03:16:09;11.40;99.90
31451;DHT22;18070;52.474;13.304;2023-10-09T03:18:40;11.40;99.90
31451;DHT22;18070;52.474;13.304;2023-10-09T03:21:05;11.40;99.90
31451;DHT22;18070;52.474;13.304;2023-10-09T03:23:31;11.50;99.90
31451;DHT22;18070;52.474;13.304;2023-10-09T03:25:57;11.50;99.90
31451;DHT22;18070;52.474;13.304;2023-10-09T03:28:24;11.40;99.90
31451;DHT22;18070;52.474;13.304;2023-10-09T03:30:50;11.40;99.90
31451;DHT22;18070;52.474;13.304;2023-10-09T03:33:17;11.40;99.90
31451;DHT22;18070;52.474;13.304;2023-10-09T03:35:42;11.50;99.90
31451;DHT22;18070;52.474;13.304;2023-10-09T03:38:08;11.40;99.90
31451;DHT22;18070;52.474;13.304;2023-10-09T03:40:44;11.40;99.90
31451;DHT22;18070;52.474;13.304;2023-10-09T03:43:13;11.50;99.90
31451;DHT22;18070;52.474;13.304;2023-10-09T03:45:39;11.50;99.90
31451;DHT22;18070;52.474;13.304;2023-10-09T03:48:18;11.50;99.90
31451;DHT22;18070;52.474;13.304;2023-10-09T03:51:00;11.50;99.90
31451;DHT22;18070;52.474;13.304;2023-10-09T03:53:37;11.50;99.90
31451;DHT22;18070;52.474;13.304;2023-10-09T03:56:08;11.50;99.90
31451;DHT22;18070;52.474;13.304;2023-10-09T03:58:42;11.50;99.90
31451;DHT22;18070;52.474;13.304;2023-10-09T04:01:13;11.50;99.90
31451;DHT22;18070;52.474;13.304;2023-10-09T04:03:53;11.50;99.90
31451;DHT22;18070;52.474;13.304;2023-10-09T04:06:23;11.40;99.90
31451;DHT22;18070;52.474;13.304;2023-10-09T04:08:54;11.40;99.90
31451;DHT22;18070;52.474;13.304;2023-10-09T04:11:20;11.40;99.90
31451;DHT22;18070;52.474;13.304;2023-10-09T04:13:48;11.40;99.90
31451;DHT22;18070;52.474;13.304;2023-10-09T04:16:15;11.40;99.90
31451;DHT22;18070;52.474;13.304;2023-10-09T04:18:56;11.40;99.90
31451;DHT22;18070;52.474;13.304;2023-10-09T04:21:23;11.40;99.90
31451;DHT22;18070;52.474;13.304;2023-10-09T04:24:14;11.40;99.90
31451;DHT22;18070;52.474;13.304;2023-10-09T04:26:41;11.40;99.90
31451;DHT22;18070;52.474;13.304;2023-10-09T04:29:11;11.40;99.90
31451;DHT22;18070;52.474;13.304;2023-10-09T04:31:57;11.40;99.90
31451;DHT22;18070;52.474;13.304;2023-10-09T04:34:27;11.40;99.90
31451;DHT22;18070;52.474;13.304;2023-10-09T04:37:03;11.40;99.90
31451;DHT22;18070;52.474;13.304;2023-10-09T04:39:52;11.40;99.90
31451;DHT22;18070;52.474;13.304;2023-10-09T04:42:36;11.40;99.90
31451;DHT22;18070;52.474;13.304;2023-10-09T04:45:05;11.40;99.90
31451;DHT22;18070;52.474;13.304;2023-10-09T04:47:35;11.40;99.90
31451;DHT22;18070;52.474;13.304;2023-10-09T04:50:02;11.40;99.90
31451;DHT22;18070;52.474;13.304;2023-10-09T04:52:33;11.40;99.90
31451;DHT22;18070;52.474;13.304;2023-10-09T04:55:00;11.40;99.90
31451;DHT22;18070;52.474;13.304;2023-10-09T04:57:40;11.40;99.90
31451;DHT22;18070;52.474;13.304;2023-10-09T05:00:13;11.40;99.90
31451;DHT22;18070;52.474;13.304;2023-10-09T05:02:49;11.40;99.90
31451;DHT22;18070;52.474;13.304;2023-10-09T05:05:24;11.40;99.90
31451;DHT22;18070;52.474;13.304;2023-10-09T05:08:15;11.30;99.90
31451;DHT22;18070;52.474;13.304;2023-10-09T05:10:47;11.30;99.90
31451;DHT22;18070;52.474;13.304;2023-10-09T05:16:09;11.30;99.90
31451;DHT22;18070;52.474;13.304;2023-10-09T05:18:42;11.30;99.90
31451;DHT22;18070;52.474;13.304;2023-10-09T05:21:13;11.30;99.90
31451;DHT22;18070;52.474;13.304;2023-10-09T05:23:41;11.30;99.90
31451;DHT22;18070;52.474;13.304;2023-10-09T05:26:36;11.30;99.90
31451;DHT22;18070;52.474;13.304;2023-10-09T05:29:14;11.30;99.90
31451;DHT22;18070;52.474;13.304;2023-10-09T05:31:50;11.30;99.90
31451;DHT22;18070;52.474;13.304;2023-10-09T05:34:36;11.20;99.90
31451;DHT22;18070;52.474;13.304;2023-10-09T05:37:20;11.20;99.90
31451;DHT22;18070;52.474;13.304;2023-10-09T05:39:58;11.20;99.90
31451;DHT22;18070;52.474;13.304;2023-10-09T05:42:32;11.30;99.90
31451;DHT22;18070;52.474;13.304;2023-10-09T05:45:11;11.30;99.90
31451;DHT22;18070;52.474;13.304;2023-10-09T05:47:50;11.30;99.90
31451;DHT22;18070;52.474;13.304;2023-10-09T05:50:29;11.30;99.90
31451;DHT22;18070;52.474;13.304;2023-10-09T05:52:56;11.30;99.90
31451;DHT22;18070;52.474;13.304;2023-10-09T05:55:23;11.30;99.90
31451;DHT22;18070;52.474;13.304;2023-10-09T05:57:50;11.30;99.90
31451;DHT22;18070;52.474;13.304;2023-10-09T06:00:34;11.30;99.90
31451;DHT22;18070;52.474;13.304;2023-10-09T06:03:19;11.30;99.90
31451;DHT22;18070;52.474;13.304;2023-10-09T06:05:55;11.40;99.90
31451;DHT22;18070;52.474;13.304;2023-10-09T06:08:29;11.50;99.90
31451;DHT22;18070;52.474;13.304;2023-10-09T06:11:17;11.50;99.90
31451;DHT22;18070;52.474;13.304;2023-10-09T06:13:59;11.40;99.90
31451;DHT22;18070;52.474;13.304;2023-10-09T06:16:30;11.40;99.90
31451;DHT22;18070;52.474;13.304;2023-10-09T06:19:08;11.40;99.90
31451;DHT22;18070;52.474;13.304;2023-10-09T06:21:38;11.40;99.90
31451;DHT22;18070;52.474;13.304;2023-10-09T06:24:06;11.40;99.90
31451;DHT22;18070;52.474;13.304;2023-10-09T06:26:40;11.40;99.90
31451;DHT22;18070;52.474;13.304;2023-10-09T06:29:17;11.50;99.90
31451;DHT22;18070;52.474;13.304;2023-10-09T06:31:59;11.50;99.90
31451;DHT22;18070;52.474;13.304;2023-10-09T06:34:45;11.50;99.90
31451;DHT22;18070;52.474;13.304;2023-10-09T06:37:12;11.60;99.90
31451;DHT22;18070;52.474;13.304;2023-10-09T06:42:35;11.60;99.90
31451;DHT22;18070;52.474;13.304;2023-10-09T06:45:06;11.70;99.90
31451;DHT22;18070;52.474;13.304;2023-10-09T06:47:33;11.80;99.90
31451;DHT22;18070;52.474;13.304;2023-10-09T06:50:10;11.80;99.90
31451;DHT22;18070;52.474;13.304;2023-10-09T06:52:54;11.80;99.90
31451;DHT22;18070;52.474;13.304;2023-10-09T06:55:23;11.80;99.90
31451;DHT22;18070;52.474;13.304;2023-10-09T06:58:00;11.80;99.90
31451;DHT22;18070;52.474;13.304;2023-10-09T07:00:28;11.90;99.90
31451;DHT22;18070;52.474;13.304;2023-10-09T07:03:12;11.90;99.90
31451;DHT22;18070;52.474;13.304;2023-10-09T07:05:38;12.00;99.90
31451;DHT22;18070;52.474;13.304;2023-10-09T07:08:22;12.00;99.90
31451;DHT22;18070;52.474;13.304;2023-10-09T07:11:00;11.90;99.90
31451;DHT22;18070;52.474;13.304;2023-10-09T07:13:45;11.80;99.90
31451;DHT22;18070;52.474;13.304;2023-10-09T07:16:22;11.80;99.90
31451;DHT22;18070;52.474;13.304;2023-10-09T07:18:55;11.80;99.90
31451;DHT22;18070;52.474;13.304;2023-10-09T07:21:37;12.00;99.90
31451;DHT22;18070;52.474;13.304;2023-10-09T07:24:05;11.90;99.90
31451;DHT22;18070;52.474;13.304;2023-10-09T07:26:40;11.90;99.90
31451;DHT22;18070;52.474;13.304;2023-10-09T07:29:15;11.90;99.90
31451;DHT22;18070;52.474;13.304;2023-10-09T07:31:51;11.80;99.90
31451;DHT22;18070;52.474;13.304;2023-10-09T07:34:23;11.90;99.90
31451;DHT22;18070;52.474;13.304;2023-10-09T07:37:08;11.90;99.90
31451;DHT22;18070;52.474;13.304;2023-10-09T07:39:34;12.00;99.90
31451;DHT22;18070;52.474;13.304;2023-10-09T07:42:02;12.10;99.90
31451;DHT22;18070;52.474;13.304;2023-10-09T07:44:43;12.00;99.90
31451;DHT22;18070;52.474;13.304;2023-10-09T07:47:18;12.00;99.90
31451;DHT22;18070;52.474;13.304;2023-10-09T07:50:09;12.30;99.90
31451;DHT22;18070;52.474;13.304;2023-10-09T07:52:37;12.50;99.90
31451;DHT22;18070;52.474;13.304;2023-10-09T07:55:09;12.40;99.90
31451;DHT22;18070;52.474;13.304;2023-10-09T07:57:54;12.30;99.90
31451;DHT22;18070;52.474;13.304;2023-10-09T08:00:20;12.40;99.90
31451;DHT22;18070;52.474;13.304;2023-10-09T08:03:04;12.50;99.90
31451;DHT22;18070;52.474;13.304;2023-10-09T08:05:42;12.40;99.90
31451;DHT22;18070;52.474;13.304;2023-10-09T08:08:10;12.40;99.90
31451;DHT22;18070;52.474;13.304;2023-10-09T08:10:44;12.40;99.90
31451;DHT22;18070;52.474;13.304;2023-10-09T08:13:28;12.40;99.90
31451;DHT22;18070;52.474;13.304;2023-10-09T08:16:12;12.40;99.90
31451;DHT22;18070;52.474;13.304;2023-10-09T08:18:45;12.50;99.90
31451;DHT22;18070;52.474;13.304;2023-10-09T08:21:11;12.50;99.90
31451;DHT22;18070;52.474;13.304;2023-10-09T08:23:36;12.60;99.90
31451;DHT22;18070;52.474;13.304;2023-10-09T08:26:16;12.60;99.90
31451;DHT22;18070;52.474;13.304;2023-10-09T08:28:54;12.60;99.90
31451;DHT22;18070;52.474;13.304;2023-10-09T08:31:20;12.70;99.90
31451;DHT22;18070;52.474;13.304;2023-10-09T08:34:11;12.80;99.90
31451;DHT22;18070;52.474;13.304;2023-10-09T08:36:49;12.70;99.90
31451;DHT22;18070;52.474;13.304;2023-10-09T08:39:21;12.50;99.90
31451;DHT22;18070;52.474;13.304;2023-10-09T08:41:56;12.50;99.90
31451;DHT22;18070;52.474;13.304;2023-10-09T08:44:24;12.50;99.90
31451;DHT22;18070;52.474;13.304;2023-10-09T08:46:55;12.60;99.90
31451;DHT22;18070;52.474;13.304;2023-10-09T08:49:23;12.50;99.90
31451;DHT22;18070;52.474;13.304;2023-10-09T08:51:49;12.60;99.90
31451;DHT22;18070;52.474;13.304;2023-10-09T08:54:18;12.60;99.90
31451;DHT22;18070;52.474;13.304;2023-10-09T08:56:45;12.50;99.90
31451;DHT22;18070;52.474;13.304;2023-10-09T08:59:18;12.60;99.90
31451;DHT22;18070;52.474;13.304;2023-10-09T09:01:46;12.60;99.90
31451;DHT22;18070;52.474;13.304;2023-10-09T09:04:34;12.70;99.90
31451;DHT22;18070;52.474;13.304;2023-10-09T09:07:02;12.70;99.90
31451;DHT22;18070;52.474;13.304;2023-10-09T09:09:27;12.80;99.90
31451;DHT22;18070;52.474;13.304;2023-10-09T09:11:56;12.80;99.90
31451;DHT22;18070;52.474;13.304;2023-10-09T09:14:38;12.90;99.90
31451;DHT22;18070;52.474;13.304;2023-10-09T09:17:06;12.80;99.90
31451;DHT22;18070;52.474;13.304;2023-10-09T09:19:36;12.80;99.90
31451;DHT22;18070;52.474;13.304;2023-10-09T09:22:04;12.90;99.90
31451;DHT22;18070;52.474;13.304;2023-10-09T09:24:40;13.00;99.90
31451;DHT22;18070;52.474;13.304;2023-10-09T09:27:12;13.10;99.90
31451;DHT22;18070;52.474;13.304;2023-10-09T09:29:43;13.10;99.90
31451;DHT22;18070;52.474;13.304;2023-10-09T09:32:25;13.10;99.90
31451;DHT22;18070;52.474;13.304;2023-10-09T09:34:55;13.00;99.90
31451;DHT22;18070;52.474;13.304;2023-10-09T09:37:27;13.00;99.90
31451;DHT22;18070;52.474;13.304;2023-10-09T09:40:00;12.90;99.90
31451;DHT22;18070;52.474;13.304;2023-10-09T09:42:28;12.80;99.90
31451;DHT22;18070;52.474;13.304;2023-10-09T09:44:58;12.80;99.90
31451;DHT22;18070;52.474;13.304;2023-10-09T09:47:26;13.60;99.90
31451;DHT22;18070;52.474;13.304;2023-10-09T09:49:56;14.20;99.90
31451;DHT22;18070;52.474;13.304;2023-10-09T09:52:31;14.00;99.90
31451;DHT22;18070;52.474;13.304;2023-10-09T09:55:08;13.60;99.90
31451;DHT22;18070;52.474;13.304;2023-10-09T09:57:45;13.70;99.90
31451;DHT22;18070;52.474;13.304;2023-10-09T10:00:15;13.50;99.90
31451;DHT22;18070;52.474;13.304;2023-10-09T10:03:24;13.30;99.90
31451;DHT22;18070;52.474;13.304;2023-10-09T10:05:52;13.20;99.90
31451;DHT22;18070;52.474;13.304;2023-10-09T10:08:22;13.20;99.90
31451;DHT22;18070;52.474;13.304;2023-10-09T10:10:56;13.20;99.90
31451;DHT22;18070;52.474;13.304;2023-10-09T10:16:10;13.00;99.90
31451;DHT22;18070;52.474;13.304;2023-10-09T10:18:58;12.90;99.90
31451;DHT22;18070;52.474;13.304;2023-10-09T10:21:34;13.00;99.90
31451;DHT22;18070;52.474;13.304;2023-10-09T10:33:00;12.80;99.90
31451;DHT22;18070;52.474;13.304;2023-10-09T10:35:36;12.70;99.90
31451;DHT22;18070;52.474;13.304;2023-10-09T10:38:30;12.70;99.90
31451;DHT22;18070;52.474;13.304;2023-10-09T10:41:16;12.80;99.90
31451;DHT22;18070;52.474;13.304;2023-10-09T10:43:43;12.90;99.90
31451;DHT22;18070;52.474;13.304;2023-10-09T10:46:20;13.10;99.90
31451;DHT22;18070;52.474;13.304;2023-10-09T10:48:49;13.20;99.90
31451;DHT22;18070;52.474;13.304;2023-10-09T10:51:15;13.20;99.90
31451;DHT22;18070;52.474;13.304;2023-10-09T10:53:53;13.10;99.90
31451;DHT22;18070;52.474;13.304;2023-10-09T10:56:23;13.10;99.90
31451;DHT22;18070;52.474;13.304;2023-10-09T10:59:00;13.10;99.90
31451;DHT22;18070;52.474;13.304;2023-10-09T11:01:35;13.00;99.90
31451;DHT22;18070;52.474;13.304;2023-10-09T11:04:40;13.10;99.90
31451;DHT22;18070;52.474;13.304;2023-10-09T11:07:10;13.20;99.90
31451;DHT22;18070;52.474;13.304;2023-10-09T11:09:44;13.30;99.90
31451;DHT22;18070;52.474;13.304;2023-10-09T11:12:29;13.10;99.90
31451;DHT22;18070;52.474;13.304;2023-10-09T11:15:06;13.00;99.90
31451;DHT22;18070;52.474;13.304;2023-10-09T11:17:37;12.90;99.90
31451;DHT22;18070;52.474;13.304;2023-10-09T11:20:06;12.80;99.90
31451;DHT22;18070;52.474;13.304;2023-10-09T11:22:52;12.90;99.90
31451;DHT22;18070;52.474;13.304;2023-10-09T11:25:37;13.00;99.90
31451;DHT22;18070;52.474;13.304;2023-10-09T11:28:17;12.90;99.90
31451;DHT22;18070;52.474;13.304;2023-10-09T11:31:05;13.00;99.90
31451;DHT22;18070;52.474;13.304;2023-10-09T11:34:00;13.10;99.90
31451;DHT22;18070;52.474;13.304;2023-10-09T11:36:26;13.30;99.90
31451;DHT22;18070;52.474;13.304;2023-10-09T11:39:00;13.40;99.90
31451;DHT22;18070;52.474;13.304;2023-10-09T11:41:40;13.40;99.90
31451;DHT22;18070;52.474;13.304;2023-10-09T11:44:10;13.40;99.90
31451;DHT22;18070;52.474;13.304;2023-10-09T11:47:06;13.30;99.90
31451;DHT22;18070;52.474;13.304;2023-10-09T11:49:49;13.00;99.90
31451;DHT22;18070;52.474;13.304;2023-10-09T11:52:23;13.20;99.90
31451;DHT22;18070;52.474;13.304;2023-10-09T11:54:58;13.10;99.90
31451;DHT22;18070;52.474;13.304;2023-10-09T11:57:27;13.30;99.90
31451;DHT22;18070;52.474;13.304;2023-10-09T11:59:57;13.40;99.90
31451;DHT22;18070;52.474;13.304;2023-10-09T12:02:24;13.40;99.90
31451;DHT22;18070;52.474;13.304;2023-10-09T12:04:50;13.40;99.90
31451;DHT22;18070;52.474;13.304;2023-10-09T12:07:15;13.20;99.90
31451;DHT22;18070;52.474;13.304;2023-10-09T12:09:41;13.30;99.90
31451;DHT22;18070;52.474;13.304;2023-10-09T12:12:08;13.30;99.90
31451;DHT22;18070;52.474;13.304;2023-10-09T12:14:34;13.30;99.90
31451;DHT22;18070;52.474;13.304;2023-10-09T12:17:00;13.20;99.90
31451;DHT22;18070;52.474;13.304;2023-10-09T12:19:36;13.00;99.90
31451;DHT22;18070;52.474;13.304;2023-10-09T12:22:03;13.10;99.90
31451;DHT22;18070;52.474;13.304;2023-10-09T12:24:30;13.10;99.90
31451;DHT22;18070;52.474;13.304;2023-10-09T12:26:56;12.90;99.90
31451;DHT22;18070;52.474;13.304;2023-10-09T12:29:22;12.90;99.90
31451;DHT22;18070;52.474;13.304;2023-10-09T12:31:50;13.00;99.90
31451;DHT22;18070;52.474;13.304;2023-10-09T12:34:24;13.20;99.90
31451;DHT22;18070;52.474;13.304;2023-10-09T12:36:55;13.20;99.90
31451;DHT22;18070;52.474;13.304;2023-10-09T12:39:21;13.10;99.90
31451;DHT22;18070;52.474;13.304;2023-10-09T12:41:50;13.00;99.90
31451;DHT22;18070;52.474;13.304;2023-10-09T12:44:19;12.90;99.90
31451;DHT22;18070;52.474;13.304;2023-10-09T12:46:48;12.90;99.90
31451;DHT22;18070;52.474;13.304;2023-10-09T12:49:22;12.80;99.90
31451;DHT22;18070;52.474;13.304;2023-10-09T12:51:54;13.00;99.90
31451;DHT22;18070;52.474;13.304;2023-10-09T12:54:20;13.00;99.90
31451;DHT22;18070;52.474;13.304;2023-10-09T12:56:52;13.10;99.90
31451;DHT22;18070;52.474;13.304;2023-10-09T12:59:18;13.10;99.90
31451;DHT22;18070;52.474;13.304;2023-10-09T13:01:45;13.10;99.90
31451;DHT22;18070;52.474;13.304;2023-10-09T13:04:15;13.20;99.90
31451;DHT22;18070;52.474;13.304;2023-10-09T13:06:42;13.30;99.90
31451;DHT22;18070;52.474;13.304;2023-10-09T13:11:36;13.20;99.90
31451;DHT22;18070;52.474;13.304;2023-10-09T13:14:03;13.20;99.90
31451;DHT22;18070;52.474;13.304;2023-10-09T13:16:37;13.10;99.90
31451;DHT22;18070;52.474;13.304;2023-10-09T13:19:03;13.00;99.90
31451;DHT22;18070;52.474;13.304;2023-10-09T13:21:35;13.00;99.90
31451;DHT22;18070;52.474;13.304;2023-10-09T13:24:04;13.10;99.90
31451;DHT22;18070;52.474;13.304;2023-10-09T13:26:30;13.00;99.90
31451;DHT22;18070;52.474;13.304;2023-10-09T13:28:57;12.90;99.90
31451;DHT22;18070;52.474;13.304;2023-10-09T13:31:24;12.90;99.90
31451;DHT22;18070;52.474;13.304;2023-10-09T13:33:54;12.90;99.90
31451;DHT22;18070;52.474;13.304;2023-10-09T13:36:27;12.90;99.90
31451;DHT22;18070;52.474;13.304;2023-10-09T13:38:54;12.90;99.90
31451;DHT22;18070;52.474;13.304;2023-10-09T13:41:23;13.10;99.90
31451;DHT22;18070;52.474;13.304;2023-10-09T13:44:03;13.00;99.90
31451;DHT22;18070;52.474;13.304;2023-10-09T13:46:29;13.00;99.90
31451;DHT22;18070;52.474;13.304;2023-10-09T13:48:55;12.90;99.90
31451;DHT22;18070;52.474;13.304;2023-10-09T13:51:21;13.10;99.90
31451;DHT22;18070;52.474;13.304;2023-10-09T13:53:49;13.30;99.90
31451;DHT22;18070;52.474;13.304;2023-10-09T13:56:16;13.40;99.90
31451;DHT22;18070;52.474;13.304;2023-10-09T13:58:50;13.40;99.90
31451;DHT22;18070;52.474;13.304;2023-10-09T14:01:21;13.60;99.90
31451;DHT22;18070;52.474;13.304;2023-10-09T14:03:56;13.60;99.90
31451;DHT22;18070;52.474;13.304;2023-10-09T14:06:23;13.50;99.90
31451;DHT22;18070;52.474;13.304;2023-10-09T14:09:00;13.60;99.90
31451;DHT22;18070;52.474;13.304;2023-10-09T14:11:30;13.50;99.90
31451;DHT22;18070;52.474;13.304;2023-10-09T14:13:56;13.30;99.90
31451;DHT22;18070;52.474;13.304;2023-10-09T14:16:22;13.40;99.90
31451;DHT22;18070;52.474;13.304;2023-10-09T14:18:56;13.40;99.90
31451;DHT22;18070;52.474;13.304;2023-10-09T14:21:29;13.30;99.90
31451;DHT22;18070;52.474;13.304;2023-10-09T14:23:58;13.10;99.90
31451;DHT22;18070;52.474;13.304;2023-10-09T14:26:28;13.20;99.90
31451;DHT22;18070;52.474;13.304;2023-10-09T14:28:55;13.10;99.90
31451;DHT22;18070;52.474;13.304;2023-10-09T14:31:26;13.20;99.90
31451;DHT22;18070;52.474;13.304;2023-10-09T14:33:56;13.20;99.90
31451;DHT22;18070;52.474;13.304;2023-10-09T14:36:23;13.00;99.90
31451;DHT22;18070;52.474;13.304;2023-10-09T14:38:50;12.90;99.90
31451;DHT22;18070;52.474;13.304;2023-10-09T14:41:21;12.80;99.90
31451;DHT22;18070;52.474;13.304;2023-10-09T14:43:51;12.80;99.90
31451;DHT22;18070;52.474;13.304;2023-10-09T14:46:20;12.80;99.90
31451;DHT22;18070;52.474;13.304;2023-10-09T14:48:51;12.90;99.90
31451;DHT22;18070;52.474;13.304;2023-10-09T14:51:19;12.90;99.90
31451;DHT22;18070;52.474;13.304;2023-10-09T14:53:58;13.00;99.90
31451;DHT22;18070;52.474;13.304;2023-10-09T14:56:26;13.10;99.90
31451;DHT22;18070;52.474;13.304;2023-10-09T14:58:59;13.10;99.90
31451;DHT22;18070;52.474;13.304;2023-10-09T15:01:26;13.20;99.90
31451;DHT22;18070;52.474;13.304;2023-10-09T15:03:57;13.30;99.90
31451;DHT22;18070;52.474;13.304;2023-10-09T15:06:24;13.40;99.90
31451;DHT22;18070;52.474;13.304;2023-10-09T15:08:50;13.40;99.90
31451;DHT22;18070;52.474;13.304;2023-10-09T15:11:15;13.30;99.90
31451;DHT22;18070;52.474;13.304;2023-10-09T15:13:41;13.10;99.90
31451;DHT22;18070;52.474;13.304;2023-10-09T15:16:07;13.10;99.90
31451;DHT22;18070;52.474;13.304;2023-10-09T15:18:33;13.00;99.90
31451;DHT22;18070;52.474;13.304;2023-10-09T15:20:59;13.00;99.90
31451;DHT22;18070;52.474;13.304;2023-10-09T15:23:26;12.90;99.90
31451;DHT22;18070;52.474;13.304;2023-10-09T15:25:52;12.80;99.90
31451;DHT22;18070;52.474;13.304;2023-10-09T15:28:22;12.80;99.90
31451;DHT22;18070;52.474;13.304;2023-10-09T15:30:48;12.90;99.90
31451;DHT22;18070;52.474;13.304;2023-10-09T15:33:18;12.90;99.90
31451;DHT22;18070;52.474;13.304;2023-10-09T15:35:45;12.90;99.90
31451;DHT22;18070;52.474;13.304;2023-10-09T15:38:15;12.90;99.90
31451;DHT22;18070;52.474;13.304;2023-10-09T15:40:41;12.90;99.90
31451;DHT22;18070;52.474;13.304;2023-10-09T15:43:09;12.90;99.90
31451;DHT22;18070;52.474;13.304;2023-10-09T15:45:42;12.90;99.90
31451;DHT22;18070;52.474;13.304;2023-10-09T15:48:12;12.80;99.90
31451;DHT22;18070;52.474;13.304;2023-10-09T15:50:38;12.80;99.90
31451;DHT22;18070;52.474;13.304;2023-10-09T15:53:05;12.80;99.90
31451;DHT22;18070;52.474;13.304;2023-10-09T15:55:34;12.80;99.90
31451;DHT22;18070;52.474;13.304;2023-10-09T15:58:00;12.80;99.90
31451;DHT22;18070;52.474;13.304;2023-10-09T16:00:25;12.80;99.90
31451;DHT22;18070;52.474;13.304;2023-10-09T16:02:54;12.80;99.90
31451;DHT22;18070;52.474;13.304;2023-10-09T16:05:21;12.80;99.90
31451;DHT22;18070;52.474;13.304;2023-10-09T16:07:52;12.80;99.90
31451;DHT22;18070;52.474;13.304;2023-10-09T16:10:19;12.80;99.90
31451;DHT22;18070;52.474;13.304;2023-10-09T16:12:46;12.80;99.90